sensor_id;sensor_type;location;lat;lon;timestamp;pressure;altitude;pressure_sealevel;temperature;humidity
62849;BME280;48941;49.516;8.286;2023-01-28T00:01:32;101215.16;;;2.58;97.71
62849;BME280;48941;49.516;8.286;2023-01-28T00:04:00;101222.22;;;2.58;97.72
62849;BME280;48941;49.516;8.286;2023-01-28T00:06:27;101225.75;;;2.57;97.70
62849;BME280;48941;49.516;8.286;2023-01-28T00:08:55;101216.06;;;2.57;97.64
62849;BME280;48941;49.516;8.286;2023-01-28T00:11:24;101223.09;;;2.57;97.60
62849;BME280;48941;49.516;8.286;2023-01-28T00:13:53;101217.84;;;2.57;97.51
62849;BME280;48941;49.516;8.286;2023-01-28T00:16:21;101216.94;;;2.58;97.36
62849;BME280;48941;49.516;8.286;2023-01-28T00:18:50;101220.44;;;2.58;97.21
62849;BME280;48941;49.516;8.286;2023-01-28T00:21:18;101216.06;;;2.57;96.96
62849;BME280;48941;49.516;8.286;2023-01-28T00:23:49;101213.50;;;2.56;97.10
62849;BME280;48941;49.516;8.286;2023-01-28T00:26:18;101213.44;;;2.57;96.90
62849;BME280;48941;49.516;8.286;2023-01-28T00:28:47;101215.25;;;2.55;96.78
62849;BME280;48941;49.516;8.286;2023-01-28T00:31:16;101208.28;;;2.54;96.88
62849;BME280;48941;49.516;8.286;2023-01-28T00:33:45;101209.19;;;2.53;96.69
62849;BME280;48941;49.516;8.286;2023-01-28T00:36:15;101209.19;;;2.53;96.76
62849;BME280;48941;49.516;8.286;2023-01-28T00:38:48;101203.88;;;2.55;96.67
62849;BME280;48941;49.516;8.286;2023-01-28T00:41:17;101208.28;;;2.54;96.64
62849;BME280;48941;49.516;8.286;2023-01-28T00:43:48;101203.13;;;2.51;96.49
62849;BME280;48941;49.516;8.286;2023-01-28T00:46:16;101207.59;;;2.49;96.64
62849;BME280;48941;49.516;8.286;2023-01-28T00:48:45;101203.22;;;2.50;96.42
62849;BME280;48941;49.516;8.286;2023-01-28T00:51:16;101205.06;;;2.46;96.38
62849;BME280;48941;49.516;8.286;2023-01-28T00:53:45;101198.88;;;2.47;96.61
62849;BME280;48941;49.516;8.286;2023-01-28T00:56:15;101203.28;;;2.47;96.63
62849;BME280;48941;49.516;8.286;2023-01-28T00:58:43;101198.00;;;2.48;96.88
62849;BME280;48941;49.516;8.286;2023-01-28T01:01:13;101210.34;;;2.46;96.80
62849;BME280;48941;49.516;8.286;2023-01-28T01:03:41;101215.59;;;2.46;96.80
62849;BME280;48941;49.516;8.286;2023-01-28T01:06:10;101210.38;;;2.45;97.04
62849;BME280;48941;49.516;8.286;2023-01-28T01:08:40;101211.22;;;2.45;96.84
62849;BME280;48941;49.516;8.286;2023-01-28T01:11:16;101212.16;;;2.44;97.31
62849;BME280;48941;49.516;8.286;2023-01-28T01:13:49;101208.59;;;2.45;97.29
62849;BME280;48941;49.516;8.286;2023-01-28T01:16:16;101213.84;;;2.45;97.21
62849;BME280;48941;49.516;8.286;2023-01-28T01:18:44;101208.72;;;2.42;97.29
62849;BME280;48941;49.516;8.286;2023-01-28T01:21:14;101210.47;;;2.42;97.15
62849;BME280;48941;49.516;8.286;2023-01-28T01:23:44;101218.44;;;2.40;97.32
62849;BME280;48941;49.516;8.286;2023-01-28T01:26:13;101215.78;;;2.40;97.36
62849;BME280;48941;49.516;8.286;2023-01-28T01:28:41;101214.06;;;2.39;97.52
62849;BME280;48941;49.516;8.286;2023-01-28T01:31:10;101217.53;;;2.39;97.58
62849;BME280;48941;49.516;8.286;2023-01-28T01:33:39;101218.47;;;2.38;97.31
62849;BME280;48941;49.516;8.286;2023-01-28T01:36:10;101217.63;;;2.38;97.53
62849;BME280;48941;49.516;8.286;2023-01-28T01:38:38;101214.19;;;2.36;97.37
62849;BME280;48941;49.516;8.286;2023-01-28T01:41:08;101214.19;;;2.36;97.44
62849;BME280;48941;49.516;8.286;2023-01-28T01:43:46;101221.25;;;2.34;97.39
62849;BME280;48941;49.516;8.286;2023-01-28T01:46:16;101223.88;;;2.34;97.30
62849;BME280;48941;49.516;8.286;2023-01-28T01:48:45;101221.31;;;2.32;97.21
62849;BME280;48941;49.516;8.286;2023-01-28T01:51:16;101217.75;;;2.33;97.41
62849;BME280;48941;49.516;8.286;2023-01-28T01:53:48;101218.66;;;2.32;97.52
62849;BME280;48941;49.516;8.286;2023-01-28T01:56:21;101220.38;;;2.33;97.51
62849;BME280;48941;49.516;8.286;2023-01-28T01:58:52;101227.41;;;2.33;97.35
62849;BME280;48941;49.516;8.286;2023-01-28T02:01:24;101228.25;;;2.33;97.27
62849;BME280;48941;49.516;8.286;2023-01-28T02:03:58;101231.84;;;2.31;97.08
62849;BME280;48941;49.516;8.286;2023-01-28T02:06:30;101231.91;;;2.29;97.34
62849;BME280;48941;49.516;8.286;2023-01-28T02:08:58;101227.66;;;2.25;97.55
62849;BME280;48941;49.516;8.286;2023-01-28T02:11:29;101231.22;;;2.24;97.26
62849;BME280;48941;49.516;8.286;2023-01-28T02:14:01;101232.94;;;2.24;97.47
62849;BME280;48941;49.516;8.286;2023-01-28T02:16:30;101229.38;;;2.26;97.69
62849;BME280;48941;49.516;8.286;2023-01-28T02:18:58;101221.63;;;2.22;97.54
62849;BME280;48941;49.516;8.286;2023-01-28T02:22:09;101232.22;;;2.20;97.45
62849;BME280;48941;49.516;8.286;2023-01-28T02:25:12;101232.09;;;2.23;97.06
62849;BME280;48941;49.516;8.286;2023-01-28T02:28:07;101237.50;;;2.18;97.28
62849;BME280;48941;49.516;8.286;2023-01-28T02:30:39;101243.75;;;2.16;97.34
62849;BME280;48941;49.516;8.286;2023-01-28T02:33:12;101244.59;;;2.16;97.39
62849;BME280;48941;49.516;8.286;2023-01-28T02:35:41;101243.66;;;2.17;97.27
62849;BME280;48941;49.516;8.286;2023-01-28T02:38:17;101246.41;;;2.14;97.39
62849;BME280;48941;49.516;8.286;2023-01-28T02:40:53;101241.91;;;2.18;97.60
62849;BME280;48941;49.516;8.286;2023-01-28T02:43:33;101239.38;;;2.15;97.63
62849;BME280;48941;49.516;8.286;2023-01-28T02:46:17;101245.59;;;2.12;97.62
62849;BME280;48941;49.516;8.286;2023-01-28T02:49:06;101229.81;;;2.12;97.77
62849;BME280;48941;49.516;8.286;2023-01-28T02:51:49;101240.31;;;2.14;97.54
62849;BME280;48941;49.516;8.286;2023-01-28T02:54:29;101235.97;;;2.11;97.45
62849;BME280;48941;49.516;8.286;2023-01-28T02:57:09;101241.31;;;2.10;97.38
62849;BME280;48941;49.516;8.286;2023-01-28T02:59:41;101241.31;;;2.10;96.93
62849;BME280;48941;49.516;8.286;2023-01-28T03:02:19;101235.25;;;2.08;97.03
62849;BME280;48941;49.516;8.286;2023-01-28T03:04:55;101246.63;;;2.07;96.69
62849;BME280;48941;49.516;8.286;2023-01-28T03:07:27;101240.53;;;2.06;96.84
62849;BME280;48941;49.516;8.286;2023-01-28T03:09:57;101236.13;;;2.07;96.66
62849;BME280;48941;49.516;8.286;2023-01-28T03:12:26;101243.16;;;2.06;96.43
62849;BME280;48941;49.516;8.286;2023-01-28T03:15:16;101228.16;;;2.10;96.11
62849;BME280;48941;49.516;8.286;2023-01-28T03:18:06;101241.44;;;2.05;96.15
62849;BME280;48941;49.516;8.286;2023-01-28T03:20:56;101238.56;;;2.13;96.16
62849;BME280;48941;49.516;8.286;2023-01-28T03:23:53;101239.53;;;2.10;96.11
62849;BME280;48941;49.516;8.286;2023-01-28T03:26:44;101245.06;;;2.01;96.20
62849;BME280;48941;49.516;8.286;2023-01-28T03:29:32;101241.63;;;1.99;96.53
62849;BME280;48941;49.516;8.286;2023-01-28T03:32:21;101252.13;;;1.99;96.24
62849;BME280;48941;49.516;8.286;2023-01-28T03:35:08;101244.34;;;1.96;96.26
62849;BME280;48941;49.516;8.286;2023-01-28T03:37:54;101255.72;;;1.96;96.49
62849;BME280;48941;49.516;8.286;2023-01-28T03:40:25;101262.81;;;1.93;96.51
62849;BME280;48941;49.516;8.286;2023-01-28T03:42:53;101261.88;;;1.95;96.44
62849;BME280;48941;49.516;8.286;2023-01-28T03:45:22;101260.81;;;2.01;95.98
62849;BME280;48941;49.516;8.286;2023-01-28T03:47:50;101262.75;;;1.96;95.97
62849;BME280;48941;49.516;8.286;2023-01-28T03:50:18;101266.22;;;1.96;96.02
62849;BME280;48941;49.516;8.286;2023-01-28T03:52:46;101263.44;;;2.01;96.04
62849;BME280;48941;49.516;8.286;2023-01-28T03:55:14;101261.75;;;2.00;95.75
62849;BME280;48941;49.516;8.286;2023-01-28T03:57:42;101268.91;;;1.95;95.77
62849;BME280;48941;49.516;8.286;2023-01-28T04:00:11;101274.19;;;1.93;95.68
62849;BME280;48941;49.516;8.286;2023-01-28T04:02:39;101275.25;;;1.88;96.05
62849;BME280;48941;49.516;8.286;2023-01-28T04:05:09;101281.41;;;1.87;96.15
62849;BME280;48941;49.516;8.286;2023-01-28T04:07:38;101274.38;;;1.87;96.48
62849;BME280;48941;49.516;8.286;2023-01-28T04:10:07;101273.53;;;1.87;96.50
62849;BME280;48941;49.516;8.286;2023-01-28T04:12:35;101277.03;;;1.86;96.42
62849;BME280;48941;49.516;8.286;2023-01-28T04:15:05;101278.00;;;1.83;96.47
62849;BME280;48941;49.516;8.286;2023-01-28T04:17:44;101274.56;;;1.81;96.51
62849;BME280;48941;49.516;8.286;2023-01-28T04:20:14;101276.38;;;1.79;96.78
62849;BME280;48941;49.516;8.286;2023-01-28T04:22:42;101284.19;;;1.82;96.90
62849;BME280;48941;49.516;8.286;2023-01-28T04:25:10;101281.56;;;1.82;97.09
62849;BME280;48941;49.516;8.286;2023-01-28T04:27:38;101287.69;;;1.81;97.30
62849;BME280;48941;49.516;8.286;2023-01-28T04:30:07;101286.72;;;1.84;97.08
62849;BME280;48941;49.516;8.286;2023-01-28T04:32:35;101284.94;;;1.86;97.03
62849;BME280;48941;49.516;8.286;2023-01-28T04:35:03;101290.28;;;1.83;97.05
62849;BME280;48941;49.516;8.286;2023-01-28T04:37:32;101288.66;;;1.78;97.21
62849;BME280;48941;49.516;8.286;2023-01-28T04:40:00;101293.91;;;1.78;97.29
62849;BME280;48941;49.516;8.286;2023-01-28T04:42:28;101294.75;;;1.79;97.29
62849;BME280;48941;49.516;8.286;2023-01-28T04:44:56;101294.75;;;1.79;97.49
62849;BME280;48941;49.516;8.286;2023-01-28T04:47:24;101298.25;;;1.79;97.17
62849;BME280;48941;49.516;8.286;2023-01-28T04:49:52;101300.78;;;1.83;96.99
62849;BME280;48941;49.516;8.286;2023-01-28T04:52:19;101302.66;;;1.79;96.90
62849;BME280;48941;49.516;8.286;2023-01-28T04:54:48;101298.25;;;1.79;97.20
62849;BME280;48941;49.516;8.286;2023-01-28T04:57:16;101299.94;;;1.82;96.76
62849;BME280;48941;49.516;8.286;2023-01-28T04:59:44;101298.22;;;1.81;96.19
62849;BME280;48941;49.516;8.286;2023-01-28T05:02:12;101295.53;;;1.83;96.18
62849;BME280;48941;49.516;8.286;2023-01-28T05:04:39;101302.56;;;1.82;96.14
62849;BME280;48941;49.516;8.286;2023-01-28T05:07:07;101288.63;;;1.80;96.09
62849;BME280;48941;49.516;8.286;2023-01-28T05:09:35;101294.72;;;1.81;95.96
62849;BME280;48941;49.516;8.286;2023-01-28T05:12:05;101300.88;;;1.79;95.85
62849;BME280;48941;49.516;8.286;2023-01-28T05:14:33;101303.41;;;1.83;95.78
62849;BME280;48941;49.516;8.286;2023-01-28T05:17:00;101297.34;;;1.81;96.04
62849;BME280;48941;49.516;8.286;2023-01-28T05:19:28;101305.91;;;1.87;96.03
62849;BME280;48941;49.516;8.286;2023-01-28T05:21:56;101300.66;;;1.87;96.09
62849;BME280;48941;49.516;8.286;2023-01-28T05:24:24;101314.75;;;1.85;95.84
62849;BME280;48941;49.516;8.286;2023-01-28T05:26:52;101304.28;;;1.83;95.94
62849;BME280;48941;49.516;8.286;2023-01-28T05:29:21;101311.31;;;1.83;96.26
62849;BME280;48941;49.516;8.286;2023-01-28T05:31:48;101306.94;;;1.82;96.17
62849;BME280;48941;49.516;8.286;2023-01-28T05:34:16;101316.59;;;1.81;96.22
62849;BME280;48941;49.516;8.286;2023-01-28T05:36:44;101332.31;;;1.83;96.42
62849;BME280;48941;49.516;8.286;2023-01-28T05:39:12;101323.66;;;1.79;96.36
62849;BME280;48941;49.516;8.286;2023-01-28T05:41:39;101322.81;;;1.78;96.61
62849;BME280;48941;49.516;8.286;2023-01-28T05:44:07;101328.03;;;1.80;96.56
62849;BME280;48941;49.516;8.286;2023-01-28T05:46:36;101333.28;;;1.80;96.40
62849;BME280;48941;49.516;8.286;2023-01-28T05:49:10;101334.97;;;1.81;96.62
62849;BME280;48941;49.516;8.286;2023-01-28T05:51:39;101339.34;;;1.82;96.52
62849;BME280;48941;49.516;8.286;2023-01-28T05:54:07;101346.41;;;1.80;96.50
62849;BME280;48941;49.516;8.286;2023-01-28T05:56:35;101345.53;;;1.79;96.44
62849;BME280;48941;49.516;8.286;2023-01-28T05:59:03;101346.44;;;1.78;96.45
62849;BME280;48941;49.516;8.286;2023-01-28T06:01:31;101348.22;;;1.78;96.54
62849;BME280;48941;49.516;8.286;2023-01-28T06:04:00;101345.69;;;1.73;96.66
62849;BME280;48941;49.516;8.286;2023-01-28T06:06:28;101348.28;;;1.75;96.81
62849;BME280;48941;49.516;8.286;2023-01-28T06:08:55;101349.06;;;1.78;97.08
62849;BME280;48941;49.516;8.286;2023-01-28T06:11:23;101355.19;;;1.79;96.92
62849;BME280;48941;49.516;8.286;2023-01-28T06:13:51;101360.44;;;1.79;96.70
62849;BME280;48941;49.516;8.286;2023-01-28T06:16:19;101360.38;;;1.82;96.77
62849;BME280;48941;49.516;8.286;2023-01-28T06:18:46;101356.91;;;1.80;96.76
62849;BME280;48941;49.516;8.286;2023-01-28T06:21:15;101359.47;;;1.82;96.71
62849;BME280;48941;49.516;8.286;2023-01-28T06:23:43;101370.09;;;1.78;96.96
62849;BME280;48941;49.516;8.286;2023-01-28T06:26:11;101374.38;;;1.81;96.91
62849;BME280;48941;49.516;8.286;2023-01-28T06:28:39;101375.19;;;1.83;96.64
62849;BME280;48941;49.516;8.286;2023-01-28T06:31:07;101378.78;;;1.81;96.78
62849;BME280;48941;49.516;8.286;2023-01-28T06:33:35;101386.75;;;1.77;96.44
62849;BME280;48941;49.516;8.286;2023-01-28T06:36:03;101383.28;;;1.75;96.60
62849;BME280;48941;49.516;8.286;2023-01-28T06:38:33;101388.63;;;1.74;96.55
62849;BME280;48941;49.516;8.286;2023-01-28T06:41:01;101385.22;;;1.70;96.60
62849;BME280;48941;49.516;8.286;2023-01-28T06:43:29;101393.94;;;1.71;96.71
62849;BME280;48941;49.516;8.286;2023-01-28T06:45:57;101396.53;;;1.72;96.55
62849;BME280;48941;49.516;8.286;2023-01-28T06:48:25;101403.56;;;1.72;96.08
62849;BME280;48941;49.516;8.286;2023-01-28T06:50:53;101393.94;;;1.71;96.06
62849;BME280;48941;49.516;8.286;2023-01-28T06:53:21;101405.41;;;1.68;95.75
62849;BME280;48941;49.516;8.286;2023-01-28T06:55:50;101408.00;;;1.70;95.35
62849;BME280;48941;49.516;8.286;2023-01-28T06:58:18;101402.63;;;1.73;95.22
62849;BME280;48941;49.516;8.286;2023-01-28T07:00:46;101407.88;;;1.73;94.97
62849;BME280;48941;49.516;8.286;2023-01-28T07:03:14;101410.44;;;1.76;95.27
62849;BME280;48941;49.516;8.286;2023-01-28T07:05:42;101413.09;;;1.74;95.34
62849;BME280;48941;49.516;8.286;2023-01-28T07:08:10;101411.47;;;1.70;95.56
62849;BME280;48941;49.516;8.286;2023-01-28T07:10:38;101414.97;;;1.69;95.60
62849;BME280;48941;49.516;8.286;2023-01-28T07:13:07;101417.72;;;1.66;95.55
62849;BME280;48941;49.516;8.286;2023-01-28T07:15:35;101414.13;;;1.69;95.34
62849;BME280;48941;49.516;8.286;2023-01-28T07:18:03;101420.22;;;1.69;95.30
62849;BME280;48941;49.516;8.286;2023-01-28T07:20:31;101419.41;;;1.67;95.19
62849;BME280;48941;49.516;8.286;2023-01-28T07:22:59;101421.84;;;1.75;94.89
62849;BME280;48941;49.516;8.286;2023-01-28T07:25:26;101410.38;;;1.77;94.31
62849;BME280;48941;49.516;8.286;2023-01-28T07:27:54;101415.69;;;1.76;94.32
62849;BME280;48941;49.516;8.286;2023-01-28T07:30:23;101416.53;;;1.78;93.97
62849;BME280;48941;49.516;8.286;2023-01-28T07:32:52;101422.69;;;1.75;94.24
62849;BME280;48941;49.516;8.286;2023-01-28T07:35:20;101420.06;;;1.75;93.77
62849;BME280;48941;49.516;8.286;2023-01-28T07:37:52;101424.50;;;1.73;94.07
62849;BME280;48941;49.516;8.286;2023-01-28T07:40:20;101417.41;;;1.77;93.72
62849;BME280;48941;49.516;8.286;2023-01-28T07:42:48;101420.81;;;1.81;93.74
62849;BME280;48941;49.516;8.286;2023-01-28T07:45:15;101421.66;;;1.81;93.70
62849;BME280;48941;49.516;8.286;2023-01-28T07:47:52;101425.13;;;1.83;93.75
62849;BME280;48941;49.516;8.286;2023-01-28T07:50:20;101426.78;;;1.86;93.30
62849;BME280;48941;49.516;8.286;2023-01-28T07:52:48;101436.34;;;1.90;93.00
62849;BME280;48941;49.516;8.286;2023-01-28T07:55:16;101432.75;;;1.92;92.83
62849;BME280;48941;49.516;8.286;2023-01-28T07:57:48;101438.81;;;1.96;92.70
62849;BME280;48941;49.516;8.286;2023-01-28T08:00:17;101433.56;;;1.94;91.71
62849;BME280;48941;49.516;8.286;2023-01-28T08:02:47;101437.03;;;1.96;91.90
62849;BME280;48941;49.516;8.286;2023-01-28T08:05:16;101435.25;;;1.97;92.05
62849;BME280;48941;49.516;8.286;2023-01-28T08:07:45;101444.88;;;1.98;92.18
62849;BME280;48941;49.516;8.286;2023-01-28T08:10:15;101444.72;;;2.03;92.35
62849;BME280;48941;49.516;8.286;2023-01-28T08:12:50;101439.44;;;2.04;91.81
62849;BME280;48941;49.516;8.286;2023-01-28T08:15:18;101440.13;;;2.11;91.70
62849;BME280;48941;49.516;8.286;2023-01-28T08:17:48;101445.13;;;2.20;91.20
62849;BME280;48941;49.516;8.286;2023-01-28T08:20:16;101449.44;;;2.23;90.62
62849;BME280;48941;49.516;8.286;2023-01-28T08:22:44;101460.72;;;2.26;90.92
62849;BME280;48941;49.516;8.286;2023-01-28T08:25:12;101448.47;;;2.25;90.90
62849;BME280;48941;49.516;8.286;2023-01-28T08:27:40;101456.31;;;2.27;91.11
62849;BME280;48941;49.516;8.286;2023-01-28T08:30:08;101453.66;;;2.28;91.24
62849;BME280;48941;49.516;8.286;2023-01-28T08:32:37;101450.19;;;2.28;90.73
62849;BME280;48941;49.516;8.286;2023-01-28T08:35:06;101457.06;;;2.32;90.72
62849;BME280;48941;49.516;8.286;2023-01-28T08:37:34;101454.47;;;2.30;90.75
62849;BME280;48941;49.516;8.286;2023-01-28T08:40:02;101450.03;;;2.32;90.49
62849;BME280;48941;49.516;8.286;2023-01-28T08:42:30;101456.06;;;2.36;89.94
62849;BME280;48941;49.516;8.286;2023-01-28T08:44:58;101462.31;;;2.32;89.80
62849;BME280;48941;49.516;8.286;2023-01-28T08:47:26;101460.59;;;2.31;89.96
62849;BME280;48941;49.516;8.286;2023-01-28T08:49:53;101460.56;;;2.32;90.00
62849;BME280;48941;49.516;8.286;2023-01-28T08:52:23;101465.78;;;2.34;89.25
62849;BME280;48941;49.516;8.286;2023-01-28T08:54:50;101465.81;;;2.32;88.80
62849;BME280;48941;49.516;8.286;2023-01-28T08:57:18;101460.56;;;2.32;88.75
62849;BME280;48941;49.516;8.286;2023-01-28T08:59:46;101460.56;;;2.32;88.85
62849;BME280;48941;49.516;8.286;2023-01-28T09:02:13;101462.03;;;2.41;88.89
62849;BME280;48941;49.516;8.286;2023-01-28T09:04:56;101458.56;;;2.41;88.56
62849;BME280;48941;49.516;8.286;2023-01-28T09:07:26;101468.28;;;2.37;87.66
62849;BME280;48941;49.516;8.286;2023-01-28T09:09:53;101462.97;;;2.40;88.04
62849;BME280;48941;49.516;8.286;2023-01-28T09:12:21;101461.97;;;2.44;87.31
62849;BME280;48941;49.516;8.286;2023-01-28T09:14:49;101457.63;;;2.42;87.10
62849;BME280;48941;49.516;8.286;2023-01-28T09:17:18;101467.22;;;2.44;87.45
62849;BME280;48941;49.516;8.286;2023-01-28T09:19:45;101465.41;;;2.46;87.04
62849;BME280;48941;49.516;8.286;2023-01-28T09:22:13;101468.97;;;2.44;87.18
62849;BME280;48941;49.516;8.286;2023-01-28T09:24:42;101481.22;;;2.45;86.94
62849;BME280;48941;49.516;8.286;2023-01-28T09:27:10;101477.59;;;2.49;86.77
62849;BME280;48941;49.516;8.286;2023-01-28T09:29:38;101482.97;;;2.46;87.09
62849;BME280;48941;49.516;8.286;2023-01-28T09:32:06;101485.53;;;2.47;87.05
62849;BME280;48941;49.516;8.286;2023-01-28T09:34:33;101475.00;;;2.47;87.45
62849;BME280;48941;49.516;8.286;2023-01-28T09:37:01;101475.78;;;2.51;86.56
62849;BME280;48941;49.516;8.286;2023-01-28T09:39:29;101493.41;;;2.47;86.35
62849;BME280;48941;49.516;8.286;2023-01-28T09:42:12;101489.94;;;2.47;86.16
62849;BME280;48941;49.516;8.286;2023-01-28T09:44:55;101496.00;;;2.49;86.43
62849;BME280;48941;49.516;8.286;2023-01-28T09:47:29;101500.38;;;2.50;86.55
62849;BME280;48941;49.516;8.286;2023-01-28T09:50:02;101495.97;;;2.50;86.27
62849;BME280;48941;49.516;8.286;2023-01-28T09:52:34;101497.69;;;2.51;86.38
62849;BME280;48941;49.516;8.286;2023-01-28T09:55:05;101501.06;;;2.56;86.19
62849;BME280;48941;49.516;8.286;2023-01-28T09:57:40;101496.75;;;2.54;86.26
62849;BME280;48941;49.516;8.286;2023-01-28T10:00:12;101495.75;;;2.58;86.46
62849;BME280;48941;49.516;8.286;2023-01-28T10:02:54;101498.84;;;2.72;84.97
62849;BME280;48941;49.516;8.286;2023-01-28T10:05:31;101504.97;;;2.71;84.56
62849;BME280;48941;49.516;8.286;2023-01-28T10:08:17;101497.16;;;2.70;84.72
62849;BME280;48941;49.516;8.286;2023-01-28T10:10:56;101500.66;;;2.70;84.86
62849;BME280;48941;49.516;8.286;2023-01-28T10:13:32;101499.50;;;2.79;84.22
62849;BME280;48941;49.516;8.286;2023-01-28T10:16:13;101498.59;;;2.80;84.48
62849;BME280;48941;49.516;8.286;2023-01-28T10:18:48;101506.38;;;2.83;84.86
62849;BME280;48941;49.516;8.286;2023-01-28T10:21:20;101499.41;;;2.82;82.68
62849;BME280;48941;49.516;8.286;2023-01-28T10:23:56;101498.50;;;2.83;82.76
62849;BME280;48941;49.516;8.286;2023-01-28T10:26:29;101500.00;;;2.92;83.05
62849;BME280;48941;49.516;8.286;2023-01-28T10:29:08;101504.47;;;2.90;82.67
62849;BME280;48941;49.516;8.286;2023-01-28T10:31:43;101508.91;;;2.88;81.87
62849;BME280;48941;49.516;8.286;2023-01-28T10:34:13;101512.56;;;2.82;82.06
62849;BME280;48941;49.516;8.286;2023-01-28T10:36:45;101511.53;;;2.88;82.48
62849;BME280;48941;49.516;8.286;2023-01-28T10:39:14;101519.53;;;2.83;82.93
62849;BME280;48941;49.516;8.286;2023-01-28T10:41:43;101517.00;;;2.82;81.85
62849;BME280;48941;49.516;8.286;2023-01-28T10:44:31;101509.03;;;2.83;81.31
62849;BME280;48941;49.516;8.286;2023-01-28T10:47:03;101515.09;;;2.85;81.65
62849;BME280;48941;49.516;8.286;2023-01-28T10:49:38;101516.00;;;2.86;81.05
62849;BME280;48941;49.516;8.286;2023-01-28T10:52:11;101516.00;;;2.86;82.27
62849;BME280;48941;49.516;8.286;2023-01-28T10:54:39;101514.25;;;2.85;81.76
62849;BME280;48941;49.516;8.286;2023-01-28T10:57:09;101516.81;;;2.88;81.74
62849;BME280;48941;49.516;8.286;2023-01-28T10:59:40;101514.44;;;2.78;81.82
62849;BME280;48941;49.516;8.286;2023-01-28T11:02:32;101517.00;;;2.82;81.60
62849;BME280;48941;49.516;8.286;2023-01-28T11:05:05;101519.63;;;2.82;81.86
62849;BME280;48941;49.516;8.286;2023-01-28T11:07:34;101522.25;;;2.82;81.66
62849;BME280;48941;49.516;8.286;2023-01-28T11:10:02;101519.63;;;2.82;82.45
62849;BME280;48941;49.516;8.286;2023-01-28T11:12:30;101524.63;;;2.89;81.87
62849;BME280;48941;49.516;8.286;2023-01-28T11:15:01;101524.69;;;2.88;81.27
62849;BME280;48941;49.516;8.286;2023-01-28T11:17:31;101524.59;;;2.91;81.60
62849;BME280;48941;49.516;8.286;2023-01-28T11:20:08;101528.19;;;2.88;81.98
62849;BME280;48941;49.516;8.286;2023-01-28T11:22:41;101530.81;;;2.88;80.94
62849;BME280;48941;49.516;8.286;2023-01-28T11:25:15;101530.81;;;2.88;81.60
62849;BME280;48941;49.516;8.286;2023-01-28T11:27:46;101521.91;;;2.92;80.48
62849;BME280;48941;49.516;8.286;2023-01-28T11:30:20;101525.56;;;2.88;79.90
62849;BME280;48941;49.516;8.286;2023-01-28T11:32:55;101528.31;;;2.84;80.59
62849;BME280;48941;49.516;8.286;2023-01-28T11:35:23;101529.13;;;2.86;80.88
62849;BME280;48941;49.516;8.286;2023-01-28T11:37:53;101528.88;;;2.93;80.20
62849;BME280;48941;49.516;8.286;2023-01-28T11:40:21;101520.19;;;2.91;80.76
62849;BME280;48941;49.516;8.286;2023-01-28T11:42:51;101513.06;;;2.95;81.14
62849;BME280;48941;49.516;8.286;2023-01-28T11:45:30;101517.44;;;2.96;80.66
62849;BME280;48941;49.516;8.286;2023-01-28T11:48:13;101513.25;;;2.89;79.46
62849;BME280;48941;49.516;8.286;2023-01-28T11:50:45;101513.22;;;2.90;79.99
62849;BME280;48941;49.516;8.286;2023-01-28T11:53:29;101511.53;;;2.88;79.67
62849;BME280;48941;49.516;8.286;2023-01-28T11:56:17;101510.44;;;2.95;79.57
62849;BME280;48941;49.516;8.286;2023-01-28T11:58:55;101502.50;;;2.96;80.01
62849;BME280;48941;49.516;8.286;2023-01-28T12:01:35;101504.97;;;3.01;80.58
62849;BME280;48941;49.516;8.286;2023-01-28T12:04:21;101504.78;;;3.07;79.80
62849;BME280;48941;49.516;8.286;2023-01-28T12:06:59;101513.56;;;3.08;79.20
62849;BME280;48941;49.516;8.286;2023-01-28T12:09:36;101509.16;;;3.08;79.22
62849;BME280;48941;49.516;8.286;2023-01-28T12:12:21;101498.78;;;3.04;78.03
62849;BME280;48941;49.516;8.286;2023-01-28T12:15:19;101486.50;;;3.03;78.21
62849;BME280;48941;49.516;8.286;2023-01-28T12:18:03;101502.22;;;3.06;78.65
62849;BME280;48941;49.516;8.286;2023-01-28T12:20:35;101495.41;;;2.98;77.81
62849;BME280;48941;49.516;8.286;2023-01-28T12:23:18;101489.13;;;3.03;77.73
62849;BME280;48941;49.516;8.286;2023-01-28T12:26:01;101502.16;;;3.07;78.38
62849;BME280;48941;49.516;8.286;2023-01-28T12:28:41;101495.06;;;3.09;77.60
62849;BME280;48941;49.516;8.286;2023-01-28T12:31:32;101496.84;;;3.09;77.54
62849;BME280;48941;49.516;8.286;2023-01-28T12:34:27;101500.28;;;3.11;77.43
62849;BME280;48941;49.516;8.286;2023-01-28T12:37:06;101492.31;;;3.14;77.15
62849;BME280;48941;49.516;8.286;2023-01-28T12:39:47;101484.22;;;3.20;77.02
62849;BME280;48941;49.516;8.286;2023-01-28T12:42:26;101486.94;;;3.17;76.42
62849;BME280;48941;49.516;8.286;2023-01-28T12:45:01;101483.34;;;3.19;77.01
62849;BME280;48941;49.516;8.286;2023-01-28T12:47:34;101483.59;;;3.12;76.43
62849;BME280;48941;49.516;8.286;2023-01-28T12:50:11;101482.63;;;3.14;76.36
62849;BME280;48941;49.516;8.286;2023-01-28T12:52:43;101484.50;;;3.11;76.59
62849;BME280;48941;49.516;8.286;2023-01-28T12:55:17;101480.00;;;3.14;76.44
62849;BME280;48941;49.516;8.286;2023-01-28T12:57:47;101482.44;;;3.21;76.61
62849;BME280;48941;49.516;8.286;2023-01-28T13:00:24;101477.13;;;3.22;76.51
62849;BME280;48941;49.516;8.286;2023-01-28T13:03:00;101488.66;;;3.18;76.29
62849;BME280;48941;49.516;8.286;2023-01-28T13:05:34;101480.66;;;3.21;76.61
62849;BME280;48941;49.516;8.286;2023-01-28T13:08:10;101481.53;;;3.22;77.26
62849;BME280;48941;49.516;8.286;2023-01-28T13:10:42;101479.56;;;3.28;77.64
62849;BME280;48941;49.516;8.286;2023-01-28T13:13:16;101481.47;;;3.23;78.66
62849;BME280;48941;49.516;8.286;2023-01-28T13:15:45;101481.38;;;3.26;79.48
62849;BME280;48941;49.516;8.286;2023-01-28T13:18:36;101478.81;;;3.23;78.88
62849;BME280;48941;49.516;8.286;2023-01-28T13:21:28;101482.38;;;3.22;78.95
62849;BME280;48941;49.516;8.286;2023-01-28T13:24:22;101476.19;;;3.23;77.78
62849;BME280;48941;49.516;8.286;2023-01-28T13:26:57;101490.25;;;3.24;78.45